createdAt,value
2017-10-02T00:01:57.153Z,12.60
2017-10-02T00:04:25.576Z,12.60
2017-10-02T00:06:54.191Z,12.60
2017-10-02T00:09:22.755Z,12.60
2017-10-02T00:11:51.886Z,12.60
2017-10-02T00:14:20.889Z,12.60
2017-10-02T00:16:49.296Z,12.50
2017-10-02T00:19:18.382Z,12.50
2017-10-02T00:21:46.710Z,12.40
2017-10-02T00:24:15.012Z,12.40
2017-10-02T00:26:43.413Z,12.40
2017-10-02T00:29:11.814Z,12.40
2017-10-02T00:31:40.155Z,12.30
2017-10-02T00:34:08.548Z,12.20
2017-10-02T00:36:36.835Z,12.10
2017-10-02T00:39:05.171Z,12.10
2017-10-02T00:41:34.364Z,12.10
2017-10-02T00:44:02.683Z,12.10
2017-10-02T00:46:32.480Z,12.00
2017-10-02T00:49:00.906Z,12.00
2017-10-02T00:51:29.223Z,12.00
2017-10-02T00:53:57.708Z,12.00
2017-10-02T00:56:26.231Z,12.00
2017-10-02T00:58:54.984Z,11.90
2017-10-02T01:01:23.341Z,11.90
2017-10-02T01:03:53.318Z,12.00
2017-10-02T01:06:21.962Z,12.00
2017-10-02T01:08:50.296Z,12.00
2017-10-02T01:11:18.603Z,11.90
2017-10-02T01:13:46.923Z,11.90
2017-10-02T01:16:16.115Z,11.90
2017-10-02T01:18:44.402Z,11.90
2017-10-02T01:21:12.835Z,11.90
2017-10-02T01:23:41.405Z,12.00
2017-10-02T01:26:09.819Z,12.00
2017-10-02T01:52:27.720Z,11.80
2017-10-02T01:54:56.873Z,11.70
2017-10-02T01:57:25.507Z,11.70
2017-10-02T01:59:54.096Z,11.70
2017-10-02T02:02:22.852Z,11.60
2017-10-02T02:04:52.032Z,11.60
2017-10-02T02:07:20.368Z,11.60
2017-10-02T02:09:48.738Z,11.60
2017-10-02T02:12:17.072Z,11.70
2017-10-02T02:14:45.466Z,11.70
2017-10-02T02:17:14.068Z,11.70
2017-10-02T02:19:42.471Z,11.70
2017-10-02T02:22:10.903Z,11.70
2017-10-02T02:24:40.014Z,11.80
2017-10-02T02:27:08.310Z,11.80
2017-10-02T02:29:36.643Z,11.70
2017-10-02T02:32:04.960Z,11.70
2017-10-02T02:34:34.043Z,11.90
2017-10-02T02:37:02.448Z,11.80
2017-10-02T02:39:30.779Z,11.80
2017-10-02T02:41:59.862Z,11.60
2017-10-02T02:44:28.283Z,11.60
2017-10-02T02:46:56.797Z,11.60
2017-10-02T02:49:25.227Z,11.60
2017-10-02T02:51:53.838Z,11.60
2017-10-02T02:54:22.403Z,11.60
2017-10-02T02:56:51.562Z,11.60
2017-10-02T02:59:19.914Z,11.50
2017-10-02T03:01:48.338Z,11.60
2017-10-02T03:04:16.667Z,11.50
2017-10-02T03:06:45.722Z,11.50
2017-10-02T03:09:14.159Z,11.50
2017-10-02T03:11:42.490Z,11.40
2017-10-02T03:14:11.699Z,11.60
2017-10-02T03:16:40.019Z,11.50
2017-10-02T03:19:08.322Z,11.50
2017-10-02T03:21:37.410Z,11.50
2017-10-02T03:24:05.752Z,11.50
2017-10-02T03:26:34.798Z,11.40
2017-10-02T03:29:03.085Z,11.30
2017-10-02T03:31:31.412Z,11.40
2017-10-02T03:33:59.743Z,11.40
2017-10-02T03:36:28.227Z,11.30
2017-10-02T03:38:56.725Z,11.30
2017-10-02T03:41:25.298Z,11.40
2017-10-02T03:43:54.703Z,11.20
2017-10-02T03:46:23.010Z,11.20
2017-10-02T03:48:52.211Z,11.20
2017-10-02T03:51:20.558Z,11.20
2017-10-02T03:53:49.015Z,11.20
2017-10-02T03:56:17.406Z,11.20
2017-10-02T03:58:45.724Z,11.10
2017-10-02T04:01:14.055Z,11.10
2017-10-02T04:03:43.143Z,11.00
2017-10-02T04:06:11.490Z,11.00
2017-10-02T04:08:39.917Z,11.10
2017-10-02T04:11:08.227Z,11.00
2017-10-02T04:13:36.553Z,11.00
2017-10-02T04:16:04.885Z,11.00
2017-10-02T04:18:33.948Z,11.00
2017-10-02T04:21:02.251Z,10.90
2017-10-02T04:23:30.574Z,10.90
2017-10-02T04:25:58.904Z,10.80
2017-10-02T04:28:27.344Z,10.80
2017-10-02T04:30:55.884Z,10.90
2017-10-02T04:33:24.371Z,10.90
2017-10-02T04:35:53.302Z,10.80
2017-10-02T04:38:21.799Z,10.70
2017-10-02T04:40:50.132Z,10.80
2017-10-02T04:43:18.522Z,10.80
2017-10-02T04:45:46.815Z,10.70
2017-10-02T04:48:15.339Z,10.70
2017-10-02T04:50:43.619Z,10.70
2017-10-02T04:53:12.057Z,10.70
2017-10-02T04:55:40.381Z,10.80
2017-10-02T04:58:09.437Z,10.60
2017-10-02T05:00:37.754Z,10.70
2017-10-02T05:03:06.175Z,10.70
2017-10-02T05:05:34.507Z,10.70
2017-10-02T05:08:03.560Z,10.70
2017-10-02T05:10:31.879Z,10.60
2017-10-02T05:13:00.198Z,10.60
2017-10-02T05:15:28.490Z,10.70
2017-10-02T05:17:56.992Z,10.70
2017-10-02T05:20:25.603Z,10.70
2017-10-02T05:22:53.959Z,10.70
2017-10-02T05:25:22.856Z,10.70
2017-10-02T05:27:51.540Z,10.80
2017-10-02T05:30:19.934Z,10.80
2017-10-02T05:32:48.263Z,10.90
2017-10-02T05:35:16.550Z,10.90
2017-10-02T05:37:44.946Z,10.80
2017-10-02T05:40:13.330Z,10.90
2017-10-02T05:42:41.749Z,10.90
2017-10-02T05:45:10.026Z,11.00
2017-10-02T05:47:38.447Z,11.00
2017-10-02T05:50:06.751Z,11.00
2017-10-02T05:52:35.075Z,11.10
2017-10-02T05:55:03.466Z,11.10
2017-10-02T05:57:31.790Z,11.10
2017-10-02T06:00:00.185Z,11.30
2017-10-02T06:02:28.772Z,11.30
2017-10-02T06:04:57.479Z,11.30
2017-10-02T06:07:25.970Z,11.30
2017-10-02T06:09:54.510Z,11.50
2017-10-02T06:12:23.134Z,11.40
2017-10-02T06:14:51.659Z,11.50
2017-10-02T06:17:20.772Z,11.50
2017-10-02T06:19:49.965Z,11.60
2017-10-02T06:22:18.316Z,11.60
2017-10-02T06:24:46.620Z,11.60
2017-10-02T06:27:15.695Z,11.70
2017-10-02T06:29:44.014Z,11.60
2017-10-02T06:32:12.493Z,11.70
2017-10-02T06:34:40.918Z,11.60
2017-10-02T06:37:10.026Z,11.70
2017-10-02T06:39:38.363Z,11.60
2017-10-02T06:42:07.450Z,11.70
2017-10-02T06:44:35.762Z,11.70
2017-10-02T06:47:05.612Z,11.70
2017-10-02T06:49:33.903Z,11.70
2017-10-02T06:52:02.221Z,11.80
2017-10-02T06:54:30.538Z,11.80
2017-10-02T06:56:59.600Z,11.90
2017-10-02T06:59:28.229Z,11.90
2017-10-02T07:01:56.690Z,12.00
2017-10-02T07:04:25.282Z,12.10
2017-10-02T07:06:54.967Z,12.30
2017-10-02T07:09:25.054Z,12.30
2017-10-02T07:11:54.981Z,12.40
2017-10-02T07:14:24.163Z,12.40
2017-10-02T07:16:52.585Z,12.40
2017-10-02T07:19:21.090Z,12.50
2017-10-02T07:21:49.499Z,12.60
2017-10-02T07:24:17.819Z,12.60
2017-10-02T07:26:46.913Z,12.80
2017-10-02T07:29:15.213Z,12.80
2017-10-02T07:31:43.625Z,13.00
2017-10-02T07:34:12.009Z,13.00
2017-10-02T07:36:40.302Z,13.30
2017-10-02T07:39:08.938Z,13.40
2017-10-02T07:41:37.249Z,13.50
2017-10-02T07:44:05.652Z,13.60
2017-10-02T07:46:34.046Z,13.80
2017-10-02T07:49:02.358Z,14.00
2017-10-02T07:51:30.658Z,14.20
2017-10-02T07:53:59.050Z,14.40
2017-10-02T07:56:27.571Z,14.50
2017-10-02T07:58:57.221Z,14.40
2017-10-02T08:01:26.362Z,14.30
2017-10-02T08:03:55.588Z,14.30
2017-10-02T08:06:24.858Z,14.20
2017-10-02T08:08:54.096Z,14.30
2017-10-02T08:11:23.580Z,14.40
2017-10-02T08:13:52.266Z,14.40
2017-10-02T08:16:20.734Z,14.40
2017-10-02T08:18:49.079Z,14.30
2017-10-02T08:21:17.477Z,14.30
2017-10-02T08:23:46.566Z,14.40
2017-10-02T08:26:14.859Z,14.40
2017-10-02T08:28:43.190Z,14.50
2017-10-02T08:31:11.867Z,14.60
2017-10-02T08:33:41.051Z,14.60
2017-10-02T08:36:09.380Z,14.60
2017-10-02T08:38:37.707Z,14.70
2017-10-02T08:41:05.991Z,14.80
2017-10-02T08:43:34.326Z,14.90
2017-10-02T08:46:04.142Z,15.00
2017-10-02T08:48:33.226Z,15.00
2017-10-02T08:51:01.570Z,15.00
2017-10-02T08:53:29.863Z,15.10
2017-10-02T08:55:58.254Z,15.20
2017-10-02T08:58:26.769Z,15.30
2017-10-02T09:00:55.419Z,15.30
2017-10-02T09:03:29.418Z,15.30
2017-10-02T09:06:00.304Z,15.30
2017-10-02T09:08:28.638Z,15.30
2017-10-02T09:10:57.795Z,15.40
2017-10-02T09:13:26.615Z,15.40
2017-10-02T09:15:55.123Z,15.30
2017-10-02T09:18:23.631Z,15.30
2017-10-02T09:20:53.475Z,15.50
2017-10-02T09:23:23.291Z,15.50
2017-10-02T09:25:51.999Z,15.50
2017-10-02T09:28:20.473Z,15.60
2017-10-02T09:30:48.832Z,15.50
2017-10-02T09:33:17.146Z,15.80
2017-10-02T09:35:45.471Z,15.90
2017-10-02T09:38:14.523Z,16.00
2017-10-02T09:40:42.858Z,16.00
2017-10-02T09:43:11.179Z,16.30
2017-10-02T09:45:39.470Z,16.50
2017-10-02T09:48:07.875Z,16.60
2017-10-02T09:50:36.195Z,16.80
2017-10-02T09:53:04.573Z,16.80
2017-10-02T09:55:32.976Z,16.70
2017-10-02T09:58:01.292Z,16.60
2017-10-02T10:00:29.591Z,16.70
2017-10-02T10:02:57.954Z,16.60
2017-10-02T10:05:26.294Z,16.50
2017-10-02T10:07:55.002Z,16.50
2017-10-02T10:10:24.886Z,16.60
2017-10-02T10:12:53.348Z,16.60
2017-10-02T10:15:21.792Z,16.60
2017-10-02T10:17:50.200Z,16.60
2017-10-02T10:20:19.271Z,16.70
2017-10-02T10:22:47.574Z,16.70
2017-10-02T10:25:15.883Z,16.80
2017-10-02T10:27:44.388Z,16.80
2017-10-02T10:30:12.923Z,16.90
2017-10-02T10:32:41.194Z,16.90
2017-10-02T10:35:09.528Z,16.90
2017-10-02T10:37:38.612Z,17.30
2017-10-02T10:40:06.894Z,17.20
2017-10-02T10:42:35.194Z,17.20
2017-10-02T10:45:03.508Z,17.30
2017-10-02T10:47:31.819Z,17.30
2017-10-02T10:50:00.227Z,17.20
2017-10-02T10:52:28.506Z,17.20
2017-10-02T10:54:56.831Z,17.40
2017-10-02T10:57:25.109Z,17.40
2017-10-02T10:59:53.451Z,17.30
2017-10-02T11:02:21.744Z,17.30
2017-10-02T11:04:50.018Z,17.30
2017-10-02T11:07:18.331Z,17.20
2017-10-02T11:09:46.643Z,17.20
2017-10-02T11:12:15.043Z,17.20
2017-10-02T11:14:43.433Z,17.20
2017-10-02T11:17:11.740Z,17.10
2017-10-02T11:19:40.052Z,17.10
2017-10-02T11:22:08.344Z,17.10
2017-10-02T11:24:36.658Z,17.20
2017-10-02T11:27:04.940Z,17.20
2017-10-02T11:29:33.260Z,17.20
2017-10-02T11:32:01.576Z,17.30
2017-10-02T11:34:30.674Z,17.20
2017-10-02T11:36:58.983Z,17.20
2017-10-02T11:39:27.475Z,17.20
2017-10-02T11:41:56.185Z,17.20
2017-10-02T11:44:25.127Z,17.20
2017-10-02T11:46:54.272Z,17.10
2017-10-02T11:49:23.139Z,17.10
2017-10-02T11:51:51.568Z,17.10
2017-10-02T11:54:21.485Z,17.10
2017-10-02T11:56:50.726Z,16.90
2017-10-02T11:59:19.036Z,16.90
2017-10-02T12:01:47.310Z,16.90
2017-10-02T12:04:15.618Z,16.80
2017-10-02T12:06:44.098Z,16.80
2017-10-02T12:09:12.406Z,16.70
2017-10-02T12:11:41.580Z,16.40
2017-10-02T12:14:09.901Z,16.40
2017-10-02T12:16:38.974Z,16.30
2017-10-02T12:19:07.274Z,16.30
2017-10-02T12:21:35.611Z,16.20
2017-10-02T12:24:03.977Z,16.20
2017-10-02T12:26:32.286Z,16.10
2017-10-02T12:29:00.595Z,16.00
2017-10-02T12:31:28.879Z,15.90
2017-10-02T12:33:57.434Z,15.80
2017-10-02T12:36:25.886Z,15.80
2017-10-02T12:38:55.116Z,15.60
2017-10-02T12:41:23.930Z,15.60
2017-10-02T12:43:53.315Z,15.40
2017-10-02T12:46:21.834Z,15.40
2017-10-02T12:48:51.099Z,15.20
2017-10-02T12:51:19.608Z,15.10
2017-10-02T12:53:47.892Z,15.10
2017-10-02T12:56:17.176Z,15.00
2017-10-02T12:58:46.647Z,14.90
2017-10-02T13:01:14.954Z,14.90
2017-10-02T13:03:43.329Z,14.90
2017-10-02T13:06:11.940Z,14.80
2017-10-02T13:08:40.324Z,14.90
2017-10-02T13:11:08.678Z,14.80
2017-10-02T13:13:37.078Z,14.80
2017-10-02T13:16:05.479Z,14.70
2017-10-02T13:18:33.795Z,14.80
2017-10-02T13:21:02.123Z,14.60
2017-10-02T13:23:31.214Z,14.70
2017-10-02T13:25:59.619Z,14.60
2017-10-02T13:28:27.948Z,14.60
2017-10-02T13:30:56.371Z,14.60
2017-10-02T13:33:24.823Z,14.50
2017-10-02T13:35:53.630Z,14.40
2017-10-02T13:38:22.242Z,14.40
2017-10-02T13:40:51.530Z,14.30
2017-10-02T13:43:19.871Z,14.30
2017-10-02T13:45:48.219Z,14.30
2017-10-02T13:48:17.393Z,14.30
2017-10-02T13:50:45.806Z,14.30
2017-10-02T13:53:14.115Z,14.30
2017-10-02T13:55:42.428Z,14.20
2017-10-02T13:58:11.635Z,14.20
2017-10-02T14:00:40.139Z,14.20
2017-10-02T14:03:08.415Z,14.20
2017-10-02T14:05:36.693Z,14.10
2017-10-02T14:08:05.779Z,14.00
2017-10-02T14:10:34.058Z,14.00
2017-10-02T14:13:02.344Z,14.10
2017-10-02T14:15:30.646Z,14.10
2017-10-02T14:17:58.958Z,14.00
2017-10-02T14:20:27.306Z,13.90
2017-10-02T14:22:56.652Z,13.70
2017-10-02T14:25:25.771Z,13.80
2017-10-02T14:27:54.220Z,13.80
2017-10-02T14:30:23.572Z,13.70
2017-10-02T14:32:52.875Z,13.70
2017-10-02T14:35:21.474Z,13.70
2017-10-02T14:37:51.515Z,13.70
2017-10-02T14:40:19.932Z,13.70
2017-10-02T14:42:49.038Z,13.70
2017-10-02T14:45:17.313Z,13.60
2017-10-02T14:47:45.627Z,13.60
2017-10-02T14:50:13.911Z,13.70
2017-10-02T14:52:42.264Z,13.60
2017-10-02T14:55:10.766Z,13.60
2017-10-02T14:57:39.048Z,13.60
2017-10-02T15:00:07.666Z,13.50
2017-10-02T15:02:35.952Z,13.60
2017-10-02T15:05:04.518Z,13.60
2017-10-02T15:07:33.598Z,13.60
2017-10-02T15:10:01.950Z,13.60
2017-10-02T15:12:31.007Z,13.50
2017-10-02T15:14:59.323Z,13.50
2017-10-02T15:17:27.625Z,13.50
2017-10-02T15:19:55.983Z,13.40
2017-10-02T15:22:24.333Z,13.40
2017-10-02T15:24:52.934Z,13.50
2017-10-02T15:27:21.397Z,13.50
2017-10-02T15:29:49.743Z,13.50
2017-10-02T15:32:18.018Z,13.60
2017-10-02T15:34:46.355Z,13.60
2017-10-02T15:37:14.682Z,13.60
2017-10-02T15:39:43.096Z,13.50
2017-10-02T15:42:11.545Z,13.50
2017-10-02T15:44:39.872Z,13.40
2017-10-02T15:47:08.275Z,13.40
2017-10-02T15:49:36.670Z,13.50
2017-10-02T15:52:05.091Z,13.40
2017-10-02T15:54:33.370Z,13.50
2017-10-02T15:57:01.687Z,13.50
2017-10-02T15:59:30.082Z,13.50
2017-10-02T16:01:58.367Z,13.50
2017-10-02T16:04:26.731Z,13.50
2017-10-02T16:06:59.108Z,13.50
2017-10-02T16:09:27.415Z,13.50
2017-10-02T16:11:55.733Z,13.40
2017-10-02T16:14:24.070Z,13.40
2017-10-02T16:16:52.358Z,13.50
2017-10-02T16:19:21.707Z,13.60
2017-10-02T16:21:50.140Z,13.60
2017-10-02T16:24:18.471Z,13.60
2017-10-02T16:26:47.029Z,13.60
2017-10-02T16:29:15.379Z,13.70
2017-10-02T16:31:43.723Z,13.60
2017-10-02T16:37:10.087Z,13.50
2017-10-02T16:39:38.383Z,13.50
2017-10-02T16:42:06.671Z,13.60
2017-10-02T16:44:35.223Z,13.50
2017-10-02T16:47:03.700Z,13.50
2017-10-02T16:49:32.005Z,13.60
2017-10-02T16:52:00.298Z,13.60
2017-10-02T16:54:28.729Z,13.60
2017-10-02T16:56:57.019Z,13.70
2017-10-02T16:59:25.433Z,13.70
2017-10-02T17:01:53.733Z,13.60
2017-10-02T17:04:22.821Z,13.70
2017-10-02T17:06:51.301Z,13.60
2017-10-02T17:09:19.685Z,13.60
2017-10-02T17:11:47.981Z,13.60
2017-10-02T17:14:16.313Z,13.70
2017-10-02T17:16:45.470Z,13.60
2017-10-02T17:19:14.598Z,13.60
2017-10-02T17:21:42.926Z,13.60
2017-10-02T17:24:11.230Z,13.70
2017-10-02T17:26:39.592Z,13.70
2017-10-02T17:29:08.759Z,13.70
2017-10-02T17:31:37.033Z,13.70
2017-10-02T17:34:05.458Z,13.80
2017-10-02T17:36:33.808Z,13.80
2017-10-02T17:39:02.132Z,13.80
2017-10-02T17:41:30.446Z,13.80
2017-10-02T17:43:59.519Z,13.80
2017-10-02T17:46:27.822Z,13.80
2017-10-02T17:48:56.227Z,13.80
2017-10-02T17:51:25.359Z,13.80
2017-10-02T17:53:53.660Z,13.80
2017-10-02T17:56:21.955Z,13.80
2017-10-02T17:58:50.330Z,13.80
2017-10-02T18:01:18.634Z,13.80
2017-10-02T18:03:47.064Z,13.80
2017-10-02T18:06:15.384Z,13.90
2017-10-02T18:08:44.966Z,13.90
2017-10-02T18:11:13.309Z,13.90
2017-10-02T18:13:42.395Z,13.90
2017-10-02T18:16:10.772Z,13.90
2017-10-02T18:18:39.087Z,13.90
2017-10-02T18:21:08.267Z,13.80
2017-10-02T18:23:36.585Z,13.90
2017-10-02T18:26:05.624Z,13.90
2017-10-02T18:28:33.975Z,13.80
2017-10-02T18:31:02.410Z,13.80
2017-10-02T18:33:30.739Z,13.90
2017-10-02T18:35:59.043Z,13.90
2017-10-02T18:38:27.332Z,13.90
2017-10-02T18:40:55.663Z,13.90
2017-10-02T18:43:24.113Z,13.90
2017-10-02T18:45:53.188Z,13.90
2017-10-02T18:48:21.508Z,13.90
2017-10-02T18:50:50.001Z,13.90
2017-10-02T18:53:18.313Z,13.90
2017-10-02T18:55:47.406Z,14.00
2017-10-02T18:58:16.512Z,13.90
2017-10-02T19:00:45.606Z,14.00
2017-10-02T19:03:14.663Z,14.00
2017-10-02T19:05:43.004Z,13.90
2017-10-02T19:08:12.105Z,13.90
2017-10-02T19:10:40.386Z,13.80
2017-10-02T19:13:08.714Z,13.90
2017-10-02T19:15:37.790Z,13.90
2017-10-02T19:18:06.109Z,13.90
2017-10-02T19:20:35.153Z,13.90
2017-10-02T19:23:03.518Z,13.90
2017-10-02T19:25:31.911Z,13.80
2017-10-02T19:28:01.079Z,13.80
2017-10-02T19:30:29.368Z,13.80
2017-10-02T19:32:57.850Z,13.90
2017-10-02T19:35:26.199Z,13.90
2017-10-02T19:37:54.539Z,13.90
2017-10-02T19:40:22.852Z,14.00
2017-10-02T19:42:51.946Z,14.00
2017-10-02T19:45:20.308Z,14.00
2017-10-02T19:47:48.619Z,14.00
2017-10-02T19:50:18.468Z,13.90
2017-10-02T19:52:47.573Z,13.90
2017-10-02T19:55:15.910Z,13.90
2017-10-02T19:57:44.271Z,13.90
2017-10-02T20:00:13.337Z,13.90
2017-10-02T20:02:41.720Z,13.90
2017-10-02T20:05:10.105Z,13.90
2017-10-02T20:07:38.519Z,14.00
2017-10-02T20:10:06.903Z,14.00
2017-10-02T20:12:35.195Z,14.00
2017-10-02T20:15:03.508Z,13.90
2017-10-02T20:17:32.790Z,14.00
2017-10-02T20:20:01.117Z,13.90
2017-10-02T20:22:30.287Z,13.90
2017-10-02T20:24:58.690Z,13.90
2017-10-02T20:27:26.975Z,13.90
2017-10-02T20:29:55.501Z,14.00
2017-10-02T20:32:24.647Z,13.90
2017-10-02T20:34:53.148Z,13.80
2017-10-02T20:37:21.439Z,13.90
2017-10-02T20:39:49.767Z,13.90
2017-10-02T20:42:18.067Z,13.90
2017-10-02T20:44:47.150Z,13.90
2017-10-02T20:47:15.494Z,13.80
2017-10-02T20:49:44.006Z,13.80
2017-10-02T20:52:12.397Z,13.80
2017-10-02T20:54:40.750Z,13.80
2017-10-02T20:57:09.930Z,13.80
2017-10-02T20:59:38.324Z,13.80
2017-10-02T21:02:06.615Z,13.90
2017-10-02T21:04:34.926Z,13.90
2017-10-02T21:07:04.226Z,13.80
2017-10-02T21:09:34.095Z,13.70
2017-10-02T21:12:02.457Z,13.70
2017-10-02T21:14:31.538Z,13.80
2017-10-02T21:16:59.960Z,13.80
2017-10-02T21:19:29.006Z,13.80
2017-10-02T21:21:57.326Z,13.80
2017-10-02T21:24:25.664Z,13.70
2017-10-02T21:26:54.790Z,13.70
2017-10-02T21:29:23.134Z,13.70
2017-10-02T21:31:51.454Z,13.80
2017-10-02T21:34:19.740Z,13.80
2017-10-02T21:36:48.160Z,13.80
2017-10-02T21:39:16.476Z,13.80
2017-10-02T21:41:44.763Z,13.70
2017-10-02T21:44:13.081Z,13.70
2017-10-02T21:46:42.199Z,13.70
2017-10-02T21:49:11.246Z,13.80
2017-10-02T21:51:39.612Z,13.80
2017-10-02T21:54:07.965Z,13.80
2017-10-02T21:56:37.758Z,13.80
2017-10-02T21:59:06.160Z,13.80
2017-10-02T22:01:34.430Z,13.80
2017-10-02T22:04:02.923Z,13.80
2017-10-02T22:06:31.386Z,13.80
2017-10-02T22:08:59.678Z,13.70
2017-10-02T22:11:28.046Z,13.80
2017-10-02T22:13:56.358Z,13.70
2017-10-02T22:16:24.923Z,13.80
2017-10-02T22:18:55.370Z,13.70
2017-10-02T22:21:24.565Z,13.80
2017-10-02T22:23:52.874Z,13.80
2017-10-02T22:26:21.927Z,13.90
2017-10-02T22:28:50.239Z,13.90
2017-10-02T22:31:18.535Z,14.00
2017-10-02T22:33:46.931Z,14.00
2017-10-02T22:36:15.227Z,14.00
2017-10-02T22:38:44.737Z,13.90
2017-10-02T22:41:13.038Z,13.90
2017-10-02T22:43:41.371Z,13.90
2017-10-02T22:46:09.698Z,14.00
2017-10-02T22:48:37.975Z,14.00
2017-10-02T22:51:06.314Z,14.00
2017-10-02T22:53:35.372Z,14.00
2017-10-02T22:56:03.676Z,13.90
2017-10-02T22:58:31.981Z,14.00
2017-10-02T23:01:00.360Z,14.00
2017-10-02T23:03:28.705Z,13.90
2017-10-02T23:05:56.975Z,13.90
2017-10-02T23:08:26.022Z,13.90
2017-10-02T23:10:54.937Z,13.90
2017-10-02T23:13:24.955Z,13.90
2017-10-02T23:15:53.576Z,13.90
2017-10-02T23:18:21.851Z,13.90
2017-10-02T23:20:50.162Z,13.80
2017-10-02T23:23:19.254Z,13.70
2017-10-02T23:25:47.534Z,13.70
2017-10-02T23:28:15.809Z,13.60
2017-10-02T23:30:44.130Z,13.60
2017-10-02T23:33:13.231Z,13.60
2017-10-02T23:35:41.511Z,13.60
2017-10-02T23:38:09.926Z,13.60
2017-10-02T23:40:38.258Z,13.80
2017-10-02T23:43:06.535Z,13.70
2017-10-02T23:45:35.584Z,13.80
2017-10-02T23:48:03.890Z,13.80
2017-10-02T23:50:32.162Z,13.80
2017-10-02T23:53:00.656Z,13.80
2017-10-02T23:55:28.934Z,13.80
2017-10-02T23:57:57.260Z,13.80
